createdAt,value
2023-05-14T00:00:25.219Z,14.32
2023-05-14T00:02:52.506Z,14.21
2023-05-14T00:05:19.686Z,14.12
2023-05-14T00:07:46.887Z,14.16
2023-05-14T00:10:13.895Z,14.07
2023-05-14T00:12:41.049Z,14.13
2023-05-14T00:15:11.128Z,14.17
2023-05-14T00:17:39.123Z,14.39
2023-05-14T00:20:09.613Z,14.26
2023-05-14T00:22:40.272Z,14.24
2023-05-14T00:25:08.616Z,14.33
2023-05-14T00:27:38.337Z,14.20
2023-05-14T00:30:09.110Z,14.31
2023-05-14T00:32:36.716Z,14.06
2023-05-14T00:35:04.558Z,13.86
2023-05-14T00:37:31.754Z,14.04
2023-05-14T00:39:58.927Z,14.05
2023-05-14T00:42:27.365Z,13.82
2023-05-14T00:44:54.495Z,13.81
2023-05-14T00:47:21.545Z,14.04
2023-05-14T00:49:48.610Z,13.76
2023-05-14T00:52:15.839Z,13.91
2023-05-14T00:54:42.953Z,13.63
2023-05-14T00:57:10.009Z,13.42
2023-05-14T00:59:37.264Z,13.60
2023-05-14T01:02:04.359Z,13.59
2023-05-14T01:04:31.450Z,13.66
2023-05-14T01:07:09.956Z,13.77
2023-05-14T01:09:49.203Z,13.70
2023-05-14T01:12:22.642Z,13.68
2023-05-14T01:14:55.188Z,13.64
2023-05-14T01:17:23.181Z,13.55
2023-05-14T01:19:50.211Z,13.44
2023-05-14T01:22:17.200Z,13.52
2023-05-14T01:24:44.202Z,13.46
2023-05-14T01:27:17.700Z,12.73
2023-05-14T01:29:50.159Z,12.43
2023-05-14T01:32:17.173Z,13.34
2023-05-14T01:34:44.170Z,13.17
2023-05-14T01:37:11.168Z,13.46
2023-05-14T01:39:41.137Z,13.20
2023-05-14T01:42:08.616Z,13.41
2023-05-14T01:44:35.675Z,13.35
2023-05-14T01:47:02.694Z,13.36
2023-05-14T01:49:29.797Z,13.17
2023-05-14T01:51:56.893Z,13.40
2023-05-14T01:54:23.921Z,13.43
2023-05-14T01:56:51.809Z,13.37
2023-05-14T01:59:18.861Z,13.16
2023-05-14T02:01:45.910Z,13.32
2023-05-14T02:04:13.006Z,12.94
2023-05-14T02:06:40.050Z,13.28
2023-05-14T02:09:07.215Z,13.12
2023-05-14T02:11:34.286Z,13.00
2023-05-14T02:14:01.275Z,12.98
2023-05-14T02:16:28.347Z,12.96
2023-05-14T02:18:55.538Z,13.15
2023-05-14T02:21:22.629Z,13.16
2023-05-14T02:23:50.365Z,13.10
2023-05-14T02:26:17.454Z,13.11
2023-05-14T02:28:45.801Z,12.92
2023-05-14T02:31:12.987Z,13.08
2023-05-14T02:33:40.109Z,13.04
2023-05-14T02:36:07.370Z,12.79
2023-05-14T02:38:34.369Z,12.98
2023-05-14T02:41:01.390Z,12.71
2023-05-14T02:43:28.472Z,12.56
2023-05-14T02:45:55.718Z,12.64
2023-05-14T02:48:22.770Z,12.80
2023-05-14T02:50:52.775Z,12.84
2023-05-14T02:53:19.799Z,12.73
2023-05-14T02:55:46.812Z,12.48
2023-05-14T02:58:13.930Z,12.63
2023-05-14T03:00:40.992Z,12.63
2023-05-14T03:03:08.731Z,12.57
2023-05-14T03:05:39.318Z,12.58
2023-05-14T03:08:07.046Z,12.50
2023-05-14T03:10:34.217Z,12.32
2023-05-14T03:13:01.242Z,12.25
2023-05-14T03:15:28.274Z,12.41
2023-05-14T03:17:55.383Z,12.48
2023-05-14T03:20:24.724Z,12.45
2023-05-14T03:22:52.170Z,12.39
2023-05-14T03:25:19.232Z,12.34
2023-05-14T03:27:46.435Z,12.39
2023-05-14T03:30:13.647Z,12.47
2023-05-14T03:32:41.414Z,12.16
2023-05-14T03:35:08.840Z,12.49
2023-05-14T03:37:35.886Z,12.29
2023-05-14T03:40:03.099Z,12.19
2023-05-14T03:42:30.124Z,12.44
2023-05-14T03:44:57.131Z,12.10
2023-05-14T05:02:55.492Z,12.77
2023-05-14T05:05:22.722Z,12.70
2023-05-14T05:07:49.800Z,12.69
2023-05-14T05:10:16.889Z,12.60
2023-05-14T05:12:44.013Z,12.81
2023-05-14T05:15:11.148Z,12.68
2023-05-14T05:17:38.301Z,12.60
2023-05-14T05:20:08.677Z,12.77
2023-05-14T05:22:36.895Z,12.76
2023-05-14T05:25:07.565Z,12.89
2023-05-14T05:27:34.613Z,12.90
2023-05-14T05:30:01.934Z,12.69
2023-05-14T05:32:28.956Z,12.97
2023-05-14T05:34:56.025Z,12.92
2023-05-14T05:37:23.020Z,13.16
2023-05-14T05:39:50.082Z,13.26
2023-05-14T05:42:17.104Z,13.12
2023-05-14T05:44:44.180Z,13.12
2023-05-14T05:47:11.194Z,13.36
2023-05-14T05:49:38.192Z,13.26
2023-05-14T05:52:05.426Z,13.42
2023-05-14T05:54:32.620Z,13.26
2023-05-14T05:56:59.781Z,13.46
2023-05-14T05:59:26.867Z,13.38
2023-05-14T06:01:53.895Z,13.41
2023-05-14T06:04:20.927Z,13.52
2023-05-14T06:06:47.991Z,13.61
2023-05-14T06:09:15.018Z,13.81
2023-05-14T06:11:42.074Z,13.53
2023-05-14T06:14:09.076Z,13.61
2023-05-14T06:16:36.552Z,13.80
2023-05-14T06:19:03.801Z,14.18
2023-05-14T06:21:31.010Z,14.54
2023-05-14T06:23:58.070Z,14.99
2023-05-14T06:26:25.201Z,15.20
2023-05-14T06:28:52.547Z,15.17
2023-05-14T06:31:19.718Z,15.52
2023-05-14T06:33:46.792Z,15.76
2023-05-14T06:36:14.013Z,16.05
2023-05-14T06:38:41.213Z,16.38
2023-05-14T06:41:08.220Z,16.71
2023-05-14T06:43:35.261Z,16.70
2023-05-14T06:46:02.321Z,16.69
2023-05-14T06:48:29.734Z,16.66
2023-05-14T06:50:56.846Z,16.84
2023-05-14T06:53:23.910Z,16.77
2023-05-14T06:55:51.032Z,16.97
2023-05-14T06:58:18.044Z,17.01
2023-05-14T07:00:45.120Z,17.21
2023-05-14T07:03:12.197Z,17.29
2023-05-14T07:05:40.977Z,17.57
2023-05-14T07:08:08.117Z,18.03
2023-05-14T07:10:35.110Z,18.19
2023-05-14T07:13:03.419Z,18.20
2023-05-14T07:15:30.679Z,18.45
2023-05-14T07:17:57.854Z,18.50
2023-05-14T07:20:25.509Z,18.20
2023-05-14T07:22:53.560Z,18.24
2023-05-14T07:25:20.591Z,18.04
2023-05-14T07:27:47.850Z,17.73
2023-05-14T07:30:14.996Z,17.78
2023-05-14T07:32:42.329Z,17.63
2023-05-14T07:35:10.275Z,17.56
2023-05-14T07:37:37.934Z,17.70
2023-05-14T07:40:05.670Z,17.66
2023-05-14T07:42:36.802Z,17.54
2023-05-14T07:45:05.588Z,17.67
2023-05-14T07:47:33.076Z,17.61
2023-05-14T07:50:00.484Z,17.64
2023-05-14T07:52:27.587Z,18.01
2023-05-14T07:54:55.202Z,17.85
2023-05-14T07:57:22.422Z,17.91
2023-05-14T07:59:49.796Z,18.00
2023-05-14T08:02:17.831Z,17.75
2023-05-14T08:04:45.430Z,17.37
2023-05-14T08:07:12.647Z,17.48
2023-05-14T08:09:40.097Z,17.78
2023-05-14T08:12:08.519Z,17.65
2023-05-14T08:14:35.716Z,17.55
2023-05-14T08:17:03.448Z,17.93
2023-05-14T08:19:30.646Z,17.51
2023-05-14T08:21:57.938Z,18.11
2023-05-14T08:24:24.966Z,17.76
2023-05-14T08:26:52.569Z,18.17
2023-05-14T08:29:19.631Z,18.09
2023-05-14T08:31:46.727Z,18.26
2023-05-14T08:34:13.761Z,18.18
2023-05-14T08:36:40.912Z,18.27
2023-05-14T08:39:08.038Z,18.14
2023-05-14T08:41:35.310Z,18.13
2023-05-14T08:44:26.036Z,18.39
2023-05-14T08:46:53.060Z,18.20
2023-05-14T08:49:41.986Z,18.43
2023-05-14T08:52:12.353Z,18.04
2023-05-14T08:54:40.777Z,18.44
2023-05-14T08:57:09.834Z,18.57
2023-05-14T08:59:37.040Z,18.62
2023-05-14T09:02:05.245Z,18.63
2023-05-14T09:04:32.616Z,18.55
2023-05-14T09:07:01.324Z,18.65
2023-05-14T09:09:28.603Z,18.62
2023-05-14T09:11:55.662Z,18.70
2023-05-14T09:14:23.298Z,18.84
2023-05-14T09:16:51.819Z,18.59
2023-05-14T09:19:19.880Z,18.69
2023-05-14T09:21:48.888Z,18.56
2023-05-14T09:24:29.249Z,18.46
2023-05-14T09:26:59.565Z,18.67
2023-05-14T09:29:28.401Z,18.77
2023-05-14T09:31:57.790Z,18.57
2023-05-14T09:34:29.830Z,18.54
2023-05-14T09:37:05.388Z,18.83
2023-05-14T09:39:33.239Z,18.62
2023-05-14T09:42:00.331Z,18.57
2023-05-14T09:44:27.605Z,18.82
2023-05-14T09:46:55.128Z,19.11
2023-05-14T09:49:22.634Z,18.75
2023-05-14T09:51:50.345Z,19.29
2023-05-14T09:54:17.746Z,19.04
2023-05-14T09:56:44.766Z,19.09
2023-05-14T09:59:11.818Z,19.18
2023-05-14T10:01:39.427Z,19.46
2023-05-14T10:04:08.092Z,19.63
2023-05-14T10:06:39.153Z,19.68
2023-05-14T10:09:13.254Z,19.72
2023-05-14T10:11:43.768Z,19.59
2023-05-14T10:14:21.317Z,19.57
2023-05-14T10:16:50.159Z,19.59
2023-05-14T10:19:18.561Z,19.67
2023-05-14T10:21:49.225Z,19.71
2023-05-14T10:24:16.260Z,19.86
2023-05-14T10:26:43.306Z,19.81
2023-05-14T10:29:10.788Z,20.06
2023-05-14T10:31:48.447Z,19.91
2023-05-14T10:34:48.339Z,20.19
2023-05-14T10:37:23.082Z,20.13
2023-05-14T10:39:57.060Z,20.25
2023-05-14T10:42:28.961Z,20.29
2023-05-14T10:44:58.866Z,19.88
2023-05-14T10:47:26.607Z,20.25
2023-05-14T10:49:55.636Z,20.49
2023-05-14T10:52:23.143Z,20.32
2023-05-14T10:54:51.623Z,20.50
2023-05-14T10:57:19.618Z,20.42
2023-05-14T10:59:53.358Z,20.67
2023-05-14T11:02:29.217Z,20.39
2023-05-14T11:05:01.050Z,20.45
2023-05-14T11:07:40.150Z,20.71
2023-05-14T11:10:09.450Z,20.49
2023-05-14T11:12:38.753Z,20.27
2023-05-14T11:15:10.414Z,20.78
2023-05-14T11:17:38.567Z,20.97
2023-05-14T11:20:06.734Z,20.86
2023-05-14T11:22:36.982Z,20.93
2023-05-14T11:25:04.594Z,20.80
2023-05-14T11:27:35.600Z,20.34
2023-05-14T11:30:03.337Z,20.72
2023-05-14T11:32:32.546Z,20.66
2023-05-14T11:34:59.559Z,20.77
2023-05-14T11:37:26.586Z,20.41
2023-05-14T11:39:55.242Z,20.97
2023-05-14T11:42:22.610Z,20.96
2023-05-14T11:44:52.015Z,20.83
2023-05-14T11:47:20.706Z,20.98
2023-05-14T11:49:48.791Z,21.08
2023-05-14T11:52:16.841Z,21.31
2023-05-14T11:54:44.700Z,21.33
2023-05-14T11:57:21.200Z,21.47
2023-05-14T11:59:50.158Z,21.43
2023-05-14T12:02:19.867Z,21.12
2023-05-14T12:04:54.136Z,21.26
2023-05-14T12:07:21.368Z,21.23
2023-05-14T12:09:50.163Z,21.24
2023-05-14T12:12:20.915Z,21.16
2023-05-14T12:14:49.215Z,21.46
2023-05-14T12:17:18.098Z,21.66
2023-05-14T12:19:46.807Z,21.51
2023-05-14T12:22:22.823Z,21.68
2023-05-14T12:25:00.546Z,21.55
2023-05-14T12:27:29.745Z,21.76
2023-05-14T12:30:20.535Z,21.68
2023-05-14T12:32:52.143Z,21.99
2023-05-14T12:35:21.322Z,22.02
2023-05-14T12:37:48.563Z,21.83
2023-05-14T12:40:15.690Z,21.94
2023-05-14T12:42:42.794Z,21.75
2023-05-14T12:45:10.742Z,21.70
2023-05-14T12:47:38.328Z,21.79
2023-05-14T12:50:06.516Z,21.67
2023-05-14T12:52:38.510Z,20.90
2023-05-14T12:55:09.303Z,21.85
2023-05-14T12:57:39.478Z,21.70
2023-05-14T13:00:09.879Z,21.86
2023-05-14T13:02:42.132Z,21.77
2023-05-14T13:05:14.110Z,21.81
2023-05-14T13:07:41.626Z,21.60
2023-05-14T13:10:09.562Z,21.73
2023-05-14T13:12:36.977Z,21.71
2023-05-14T13:15:04.552Z,21.56
2023-05-14T13:17:31.705Z,21.88
2023-05-14T13:19:58.821Z,21.53
2023-05-14T13:22:25.893Z,21.74
2023-05-14T13:24:53.032Z,21.85
2023-05-14T13:27:20.155Z,21.83
2023-05-14T13:29:47.292Z,21.60
2023-05-14T13:32:14.376Z,21.65
2023-05-14T13:34:41.607Z,21.68
2023-05-14T13:37:08.736Z,21.91
2023-05-14T13:39:36.013Z,21.49
2023-05-14T13:42:03.246Z,21.83
2023-05-14T13:44:30.540Z,21.70
2023-05-14T13:46:57.709Z,21.60
2023-05-14T13:49:24.798Z,21.78
2023-05-14T13:51:51.902Z,21.77
2023-05-14T13:54:19.004Z,21.54
2023-05-14T13:56:46.108Z,21.43
2023-05-14T13:59:13.235Z,21.24
2023-05-14T14:01:40.677Z,21.27
2023-05-14T14:04:10.912Z,21.54
2023-05-14T14:06:38.162Z,21.15
2023-05-14T14:09:05.218Z,21.37
2023-05-14T14:11:32.463Z,21.50
2023-05-14T14:13:59.588Z,21.53
2023-05-14T14:16:26.762Z,21.33
2023-05-14T14:18:53.871Z,21.38
2023-05-14T14:21:21.264Z,21.40
2023-05-14T14:23:48.518Z,21.33
2023-05-14T14:26:16.044Z,21.41
2023-05-14T14:28:43.237Z,21.17
2023-05-14T14:31:11.061Z,21.55
2023-05-14T14:33:38.560Z,21.12
2023-05-14T14:36:06.643Z,21.18
2023-05-14T14:38:33.780Z,20.98
2023-05-14T14:41:03.330Z,20.99
2023-05-14T14:43:30.777Z,21.31
2023-05-14T14:45:57.906Z,21.14
2023-05-14T14:48:39.563Z,21.18
2023-05-14T14:51:08.064Z,21.06
2023-05-14T14:53:36.387Z,21.08
2023-05-14T14:56:03.859Z,21.00
2023-05-14T14:58:31.364Z,21.04
2023-05-14T15:00:58.803Z,21.29
2023-05-14T15:03:26.838Z,21.28
2023-05-14T15:05:54.307Z,21.23
2023-05-14T15:08:29.388Z,21.33
2023-05-14T15:10:57.160Z,21.31
2023-05-14T15:13:24.875Z,21.25
2023-05-14T15:15:52.799Z,21.25
2023-05-14T15:18:20.157Z,21.24
2023-05-14T15:20:47.295Z,21.17
2023-05-14T15:23:14.693Z,21.09
2023-05-14T15:25:41.889Z,21.24
2023-05-14T15:28:09.057Z,21.25
2023-05-14T15:30:36.562Z,21.21
2023-05-14T15:33:03.727Z,20.85
2023-05-14T15:35:30.887Z,21.06
2023-05-14T15:37:58.125Z,20.76
2023-05-14T15:40:26.961Z,20.79
2023-05-14T15:42:54.267Z,20.57
2023-05-14T15:45:21.373Z,20.62
2023-05-14T15:47:48.559Z,20.38
2023-05-14T15:50:15.661Z,20.24
2023-05-14T15:52:42.678Z,19.96
2023-05-14T15:55:10.241Z,19.81
2023-05-14T15:57:37.833Z,19.81
2023-05-14T16:00:11.232Z,19.70
2023-05-14T16:02:39.674Z,19.63
2023-05-14T16:05:08.490Z,19.74
2023-05-14T16:07:36.478Z,19.38
2023-05-14T16:10:04.067Z,19.34
2023-05-14T16:12:31.406Z,19.48
2023-05-14T16:14:58.603Z,18.90
2023-05-14T16:17:27.928Z,19.21
2023-05-14T16:19:56.504Z,18.97
2023-05-14T16:22:23.818Z,18.92
2023-05-14T16:24:51.063Z,19.04
2023-05-14T16:27:19.302Z,18.98
2023-05-14T16:29:46.423Z,18.76
2023-05-14T16:32:13.733Z,18.81
2023-05-14T16:34:41.087Z,18.67
2023-05-14T16:37:08.525Z,18.72
2023-05-14T16:39:36.558Z,18.40
2023-05-14T16:42:03.909Z,18.65
2023-05-14T16:44:31.061Z,18.58
2023-05-14T16:46:58.261Z,18.59
2023-05-14T16:49:25.344Z,18.71
2023-05-14T16:51:52.606Z,18.71
2023-05-14T16:54:19.685Z,18.79
2023-05-14T16:56:49.785Z,18.46
2023-05-14T16:59:17.441Z,18.78
2023-05-14T17:01:45.307Z,18.46
2023-05-14T17:04:12.446Z,18.50
2023-05-14T17:06:39.661Z,18.59
2023-05-14T17:09:07.181Z,18.32
2023-05-14T17:11:34.257Z,18.35
2023-05-14T17:14:01.372Z,18.32
2023-05-14T17:16:28.709Z,18.32
2023-05-14T17:18:55.849Z,18.09
2023-05-14T17:21:22.889Z,18.07
2023-05-14T17:23:49.909Z,18.00
2023-05-14T17:26:16.890Z,18.11
2023-05-14T17:28:43.914Z,18.08
2023-05-14T17:31:10.999Z,17.99
2023-05-14T17:33:38.203Z,17.99
2023-05-14T17:36:05.438Z,17.91
2023-05-14T17:38:32.452Z,17.53
2023-05-14T17:40:59.589Z,17.60
2023-05-14T17:43:26.752Z,17.75
2023-05-14T17:45:54.729Z,17.65
2023-05-14T17:48:24.102Z,17.58
2023-05-14T17:50:52.113Z,17.72
2023-05-14T17:53:19.353Z,17.70
2023-05-14T17:55:46.633Z,17.38
2023-05-14T17:58:15.618Z,17.48
2023-05-14T18:00:43.834Z,17.56
2023-05-14T18:03:11.785Z,17.52
2023-05-14T18:05:39.097Z,17.46
2023-05-14T18:08:06.197Z,17.27
2023-05-14T18:10:33.382Z,17.45
2023-05-14T18:13:00.507Z,17.48
2023-05-14T18:15:27.674Z,17.26
2023-05-14T18:17:54.920Z,17.50
2023-05-14T18:20:22.102Z,17.44
2023-05-14T18:22:50.761Z,17.36
2023-05-14T18:25:17.816Z,17.43
2023-05-14T18:27:45.472Z,17.38
2023-05-14T18:30:13.936Z,17.18
2023-05-14T18:32:44.772Z,17.27
2023-05-14T18:35:12.580Z,17.01
2023-05-14T18:37:39.949Z,17.13
2023-05-14T18:40:07.894Z,17.24
2023-05-14T18:42:35.276Z,17.12
2023-05-14T18:45:02.456Z,17.14
2023-05-14T18:47:30.486Z,16.83
2023-05-14T18:49:59.669Z,17.06
2023-05-14T18:52:26.905Z,16.26
2023-05-14T18:54:55.036Z,17.07
2023-05-14T18:57:22.276Z,16.73
2023-05-14T18:59:49.355Z,16.80
2023-05-14T19:02:16.442Z,16.56
2023-05-14T19:04:52.482Z,16.60
2023-05-14T19:07:20.822Z,16.50
2023-05-14T19:09:47.975Z,16.30
2023-05-14T19:12:16.296Z,16.59
2023-05-14T19:14:43.414Z,16.53
2023-05-14T19:17:11.499Z,16.32
2023-05-14T19:19:39.596Z,16.20
2023-05-14T19:22:06.958Z,16.26
2023-05-14T19:24:34.125Z,16.47
2023-05-14T19:27:01.173Z,16.34
2023-05-14T19:29:28.192Z,16.05
2023-05-14T19:31:55.219Z,16.31
2023-05-14T19:34:22.250Z,16.05
2023-05-14T19:36:49.276Z,16.04
2023-05-14T19:39:16.358Z,15.77
2023-05-14T19:41:43.418Z,15.72
2023-05-14T19:44:10.912Z,15.74
2023-05-14T19:46:38.068Z,15.83
2023-05-14T19:49:05.138Z,15.72
2023-05-14T19:51:32.171Z,15.70
2023-05-14T19:53:59.209Z,15.68
2023-05-14T19:56:27.249Z,15.54
2023-05-14T19:58:54.614Z,15.50
2023-05-14T20:01:21.751Z,15.31
2023-05-14T20:03:48.896Z,15.06
2023-05-14T20:06:17.587Z,15.38
2023-05-14T20:08:45.573Z,15.26
2023-05-14T20:11:12.809Z,15.35
2023-05-14T20:13:39.903Z,15.43
2023-05-14T20:16:06.895Z,15.26
2023-05-14T20:18:33.969Z,15.21
2023-05-14T20:21:01.407Z,14.84
2023-05-14T20:23:28.579Z,15.00
2023-05-14T20:25:55.787Z,15.37
2023-05-14T20:28:22.806Z,15.05
2023-05-14T20:30:49.883Z,15.12
2023-05-14T20:33:17.156Z,15.21
2023-05-14T20:35:44.312Z,15.33
2023-05-14T20:38:12.971Z,14.95
2023-05-14T20:40:40.143Z,14.96
2023-05-14T20:43:07.179Z,15.13
2023-05-14T20:45:34.189Z,14.99
2023-05-14T20:48:01.455Z,15.13
2023-05-14T20:50:28.489Z,15.01
2023-05-14T20:52:55.487Z,14.52
2023-05-14T20:55:23.613Z,14.68
2023-05-14T20:57:51.059Z,14.69
2023-05-14T21:00:18.476Z,14.50
2023-05-14T21:02:45.577Z,14.66
2023-05-14T21:05:13.998Z,14.75
2023-05-14T21:07:41.341Z,14.58
2023-05-14T21:10:09.821Z,14.75
2023-05-14T21:12:36.934Z,14.76
2023-05-14T21:15:04.161Z,14.88
2023-05-14T21:17:31.418Z,14.85
2023-05-14T21:19:58.522Z,14.71
2023-05-14T21:22:26.641Z,14.22
2023-05-14T21:24:54.794Z,14.62
2023-05-14T21:27:22.118Z,14.63
2023-05-14T21:29:49.116Z,14.60
2023-05-14T21:32:16.240Z,14.66
2023-05-14T21:34:43.456Z,14.32
2023-05-14T21:37:11.049Z,14.46
2023-05-14T21:39:38.190Z,14.51
2023-05-14T21:42:05.342Z,14.46
2023-05-14T21:44:32.366Z,14.34
2023-05-14T21:46:59.533Z,14.28
2023-05-14T21:49:26.542Z,14.15
2023-05-14T21:51:54.728Z,14.18
2023-05-14T21:54:21.757Z,14.00
2023-05-14T21:56:48.769Z,14.00
2023-05-14T21:59:15.939Z,13.90
2023-05-14T22:04:13.229Z,14.00
2023-05-14T22:06:40.742Z,13.59
2023-05-14T22:09:10.933Z,13.75
2023-05-14T22:11:38.044Z,14.29
2023-05-14T22:14:05.079Z,14.28
2023-05-14T22:16:32.803Z,14.02
2023-05-14T22:18:59.979Z,13.84
2023-05-14T22:21:27.050Z,14.07
2023-05-14T22:23:54.125Z,14.02
2023-05-14T22:26:21.862Z,14.09
2023-05-14T22:28:49.784Z,13.88
2023-05-14T22:31:16.897Z,14.06
2023-05-14T22:33:43.966Z,14.02
2023-05-14T22:36:11.128Z,14.02
2023-05-14T22:38:38.560Z,14.00
2023-05-14T22:41:05.594Z,13.64
2023-05-14T22:43:32.627Z,13.81
2023-05-14T22:45:59.716Z,13.72
2023-05-14T22:48:26.718Z,13.49
2023-05-14T22:50:53.784Z,13.55
2023-05-14T22:53:20.801Z,13.68
2023-05-14T22:55:47.928Z,13.31
2023-05-14T22:58:14.955Z,13.38
2023-05-14T23:00:42.091Z,13.18
2023-05-14T23:03:09.560Z,13.35
2023-05-14T23:05:36.718Z,13.29
2023-05-14T23:08:03.969Z,13.41
2023-05-14T23:10:31.385Z,13.58
2023-05-14T23:12:58.410Z,13.52
2023-05-14T23:15:25.695Z,13.60
2023-05-14T23:17:53.012Z,13.59
2023-05-14T23:20:20.154Z,13.45
2023-05-14T23:22:47.208Z,13.72
2023-05-14T23:25:14.279Z,13.45
2023-05-14T23:27:41.284Z,13.63
2023-05-14T23:30:08.739Z,13.46
2023-05-14T23:32:35.767Z,13.71
2023-05-14T23:35:02.816Z,13.55
2023-05-14T23:37:29.804Z,13.53
2023-05-14T23:39:56.823Z,13.45
2023-05-14T23:42:24.946Z,13.68
2023-05-14T23:44:51.996Z,13.71
2023-05-14T23:47:19.092Z,13.57
2023-05-14T23:49:46.292Z,13.65
2023-05-14T23:52:13.322Z,13.55
2023-05-14T23:54:40.660Z,13.62
2023-05-14T23:57:07.973Z,13.83
2023-05-14T23:59:35.001Z,13.71
